createdAt,value
2022-08-03T00:00:26.064Z,99760.38
2022-08-03T00:02:53.120Z,99757.22
2022-08-03T00:05:20.042Z,99761.25
2022-08-03T00:07:46.925Z,99761.06
2022-08-03T00:10:16.550Z,99757.91
2022-08-03T00:12:43.388Z,99771.47
2022-08-03T00:15:15.063Z,99758.13
2022-08-03T00:17:53.432Z,99762.97
2022-08-03T00:20:21.735Z,99759.38
2022-08-03T00:22:49.044Z,99758.97
2022-08-03T00:25:16.312Z,99755.41
2022-08-03T00:27:43.189Z,99759.44
2022-08-03T00:30:10.503Z,99766.25
2022-08-03T00:32:38.843Z,99764.13
2022-08-03T00:35:20.440Z,99752.06
2022-08-03T00:37:58.389Z,99756.09
2022-08-03T00:40:25.227Z,99752.94
2022-08-03T00:42:53.998Z,99757.59
2022-08-03T00:45:21.622Z,99747.47
2022-08-03T00:47:48.591Z,99752.09
2022-08-03T00:50:16.591Z,99750.63
2022-08-03T00:52:43.709Z,99752.72
2022-08-03T00:55:10.899Z,99756.16
2022-08-03T00:57:39.443Z,99762.28
2022-08-03T01:00:07.895Z,99762.06
2022-08-03T01:02:34.995Z,99762.28
2022-08-03T01:05:01.864Z,99760.81
2022-08-03T01:07:44.029Z,99761.88
2022-08-03T01:10:28.973Z,99760.41
2022-08-03T01:12:58.439Z,99754.06
2022-08-03T01:15:30.060Z,99757.88
2022-08-03T01:18:03.243Z,99761.25
2022-08-03T01:20:33.310Z,99763.16
2022-08-03T01:23:16.172Z,99759.13
2022-08-03T01:25:55.923Z,99755.13
2022-08-03T01:28:25.527Z,99756.41
2022-08-03T01:30:54.060Z,99757.44
2022-08-03T01:33:24.235Z,99753.00
2022-08-03T01:35:57.202Z,99747.09
2022-08-03T01:38:26.025Z,99750.03
2022-08-03T01:40:54.049Z,99757.00
2022-08-03T01:44:27.698Z,99758.28
2022-08-03T01:46:11.512Z,99756.59
2022-08-03T01:48:39.595Z,99746.03
2022-08-03T01:51:07.939Z,99742.78
2022-08-03T01:53:35.674Z,99748.53
2022-08-03T01:56:03.705Z,99753.56
2022-08-03T01:58:32.000Z,99747.25
2022-08-03T02:01:00.883Z,99745.53
2022-08-03T02:03:29.549Z,99742.59
2022-08-03T02:06:58.979Z,99750.00
2022-08-03T02:08:45.140Z,99741.50
2022-08-03T02:11:12.963Z,99751.22
2022-08-03T02:13:40.448Z,99741.50
2022-08-03T02:16:08.279Z,99749.31
2022-08-03T02:18:35.168Z,99747.63
2022-08-03T02:21:02.808Z,99747.19
2022-08-03T02:23:38.106Z,99753.75
2022-08-03T02:26:06.777Z,99741.69
2022-08-03T02:28:38.293Z,99740.66
2022-08-03T02:31:07.011Z,99738.53
2022-08-03T02:33:38.844Z,99747.81
2022-08-03T02:36:06.479Z,99748.03
2022-08-03T02:38:34.323Z,99752.03
2022-08-03T02:41:05.005Z,99742.31
2022-08-03T02:43:57.699Z,99742.53
2022-08-03T02:46:24.106Z,99753.06
2022-08-03T02:48:52.168Z,99740.38
2022-08-03T02:51:20.358Z,99744.41
2022-08-03T02:53:48.164Z,99736.38
2022-08-03T02:56:16.105Z,99738.69
2022-08-03T02:58:44.180Z,99730.44
2022-08-03T03:01:12.383Z,99734.47
2022-08-03T03:03:44.945Z,99740.56
2022-08-03T03:06:12.664Z,99741.81
2022-08-03T03:08:42.256Z,99744.56
2022-08-03T03:11:10.310Z,99735.47
2022-08-03T03:13:38.639Z,99738.84
2022-08-03T03:16:06.095Z,99738.44
2022-08-03T03:18:33.915Z,99733.13
2022-08-03T03:21:01.564Z,99736.09
2022-08-03T03:23:28.748Z,99732.69
2022-08-03T03:25:56.153Z,99739.00
2022-08-03T03:28:24.300Z,99735.59
2022-08-03T03:30:52.986Z,99733.72
2022-08-03T03:33:21.108Z,99740.47
2022-08-03T03:35:48.229Z,99743.16
2022-08-03T03:38:15.048Z,99740.63
2022-08-03T03:40:41.913Z,99738.47
2022-08-03T03:43:09.342Z,99738.47
2022-08-03T03:45:36.546Z,99738.25
2022-08-03T03:48:06.945Z,99743.75
2022-08-03T03:50:34.774Z,99737.81
2022-08-03T03:53:01.909Z,99737.63
2022-08-03T03:55:28.950Z,99736.13
2022-08-03T03:57:55.910Z,99738.03
2022-08-03T04:00:23.065Z,99735.06
2022-08-03T04:02:49.911Z,99740.38
2022-08-03T04:05:16.785Z,99732.94
2022-08-03T04:07:52.432Z,99731.25
2022-08-03T04:10:21.251Z,99734.63
2022-08-03T04:12:49.944Z,99729.56
2022-08-03T04:15:19.288Z,99731.88
2022-08-03T04:17:46.854Z,99739.72
2022-08-03T04:20:14.075Z,99732.97
2022-08-03T04:22:41.397Z,99747.13
2022-08-03T04:25:10.316Z,99735.34
2022-08-03T04:27:40.330Z,99739.16
2022-08-03T04:30:08.082Z,99738.56
2022-08-03T04:32:35.619Z,99740.97
2022-08-03T04:35:02.941Z,99743.34
2022-08-03T04:37:40.069Z,99750.78
2022-08-03T04:40:08.944Z,99737.75
2022-08-03T04:42:37.602Z,99742.63
2022-08-03T04:45:05.086Z,99744.94
2022-08-03T04:47:32.989Z,99746.00
2022-08-03T04:50:03.531Z,99742.41
2022-08-03T04:52:30.930Z,99744.72
2022-08-03T04:54:57.811Z,99751.25
2022-08-03T04:57:24.679Z,99752.66
2022-08-03T04:59:54.630Z,99751.56
2022-08-03T05:02:23.897Z,99751.47
2022-08-03T05:04:50.782Z,99760.50
2022-08-03T05:07:22.710Z,99760.84
2022-08-03T05:09:52.696Z,99757.88
2022-08-03T05:12:25.847Z,99764.75
2022-08-03T05:14:54.211Z,99757.59
2022-08-03T05:17:21.051Z,99760.59
2022-08-03T05:19:47.928Z,99760.97
2022-08-03T05:22:14.963Z,99764.53
2022-08-03T05:24:41.986Z,99759.34
2022-08-03T05:27:08.828Z,99756.19
2022-08-03T05:29:35.640Z,99765.25
2022-08-03T05:32:16.195Z,99766.22
2022-08-03T05:34:43.197Z,99765.94
2022-08-03T05:37:10.109Z,99765.72
2022-08-03T05:39:37.053Z,99766.28
2022-08-03T05:42:04.033Z,99770.69
2022-08-03T05:44:30.902Z,99772.16
2022-08-03T05:46:58.635Z,99769.00
2022-08-03T05:49:25.507Z,99775.41
2022-08-03T05:51:59.964Z,99776.28
2022-08-03T05:54:56.897Z,99776.44
2022-08-03T05:57:22.032Z,99779.94
2022-08-03T05:59:54.823Z,99768.13
2022-08-03T06:02:28.643Z,99780.97
2022-08-03T06:04:55.506Z,99782.09
2022-08-03T06:07:22.565Z,99776.22
2022-08-03T06:10:34.492Z,99782.34
2022-08-03T06:12:36.660Z,99778.44
2022-08-03T06:15:04.625Z,99775.66
2022-08-03T06:17:37.692Z,99779.00
2022-08-03T06:20:05.602Z,99783.03
2022-08-03T06:22:32.422Z,99778.53
2022-08-03T06:24:59.976Z,99784.44
2022-08-03T06:27:37.113Z,99777.66
2022-08-03T06:30:04.811Z,99781.75
2022-08-03T06:32:31.677Z,99782.66
2022-08-03T06:34:58.515Z,99781.59
2022-08-03T06:37:25.405Z,99780.44
2022-08-03T06:39:52.452Z,99776.69
2022-08-03T06:42:19.680Z,99781.84
2022-08-03T06:44:47.563Z,99774.66
2022-08-03T06:47:14.393Z,99781.38
2022-08-03T06:49:41.294Z,99788.03
2022-08-03T06:52:08.181Z,99789.56
2022-08-03T06:54:35.777Z,99788.88
2022-08-03T06:57:02.925Z,99793.44
2022-08-03T07:00:10.699Z,99795.59
2022-08-03T07:02:19.239Z,99792.13
2022-08-03T07:04:49.866Z,99787.41
2022-08-03T07:07:16.827Z,99786.97
2022-08-03T07:09:56.662Z,99784.94
2022-08-03T07:12:24.618Z,99787.50
2022-08-03T07:14:51.488Z,99780.16
2022-08-03T07:17:18.316Z,99787.13
2022-08-03T07:19:45.142Z,99788.28
2022-08-03T07:22:12.047Z,99783.91
2022-08-03T07:24:38.929Z,99783.88
2022-08-03T07:27:05.767Z,99784.16
2022-08-03T07:29:34.811Z,99789.28
2022-08-03T07:32:02.235Z,99784.53
2022-08-03T07:34:29.179Z,99782.03
2022-08-03T07:36:56.393Z,99787.56
2022-08-03T07:39:23.257Z,99789.84
2022-08-03T07:41:50.107Z,99777.72
2022-08-03T07:44:17.525Z,99780.50
2022-08-03T07:46:44.407Z,99783.59
2022-08-03T07:49:11.398Z,99778.00
2022-08-03T07:51:38.380Z,99780.09
2022-08-03T07:54:05.441Z,99777.09
2022-08-03T07:56:32.313Z,99783.50
2022-08-03T07:58:59.273Z,99775.78
2022-08-03T08:01:26.122Z,99776.28
2022-08-03T08:03:53.716Z,99774.03
2022-08-03T08:06:21.401Z,99775.75
2022-08-03T08:08:48.273Z,99774.56
2022-08-03T08:11:15.216Z,99772.44
2022-08-03T08:13:42.030Z,99765.34
2022-08-03T08:16:09.101Z,99765.47
2022-08-03T08:18:35.978Z,99770.03
2022-08-03T08:21:02.817Z,99756.22
2022-08-03T08:23:42.701Z,99765.47
2022-08-03T08:26:12.111Z,99760.53
2022-08-03T08:28:39.316Z,99764.16
2022-08-03T08:31:06.144Z,99754.25
2022-08-03T08:33:48.315Z,99751.56
2022-08-03T08:36:19.837Z,99756.47
2022-08-03T08:38:46.853Z,99755.31
2022-08-03T08:41:14.823Z,99757.16
2022-08-03T08:43:42.168Z,99755.91
2022-08-03T08:46:12.477Z,99754.03
2022-08-03T08:48:43.967Z,99751.06
2022-08-03T08:51:12.019Z,99755.31
2022-08-03T08:53:40.855Z,99761.38
2022-08-03T08:56:08.788Z,99752.91
2022-08-03T08:58:37.665Z,99756.16
2022-08-03T09:01:05.898Z,99753.41
2022-08-03T09:03:33.457Z,99755.75
2022-08-03T09:06:00.625Z,99753.66
2022-08-03T09:08:28.590Z,99752.78
2022-08-03T09:10:55.533Z,99753.22
2022-08-03T09:13:22.616Z,99750.03
2022-08-03T09:16:08.452Z,99750.41
2022-08-03T09:18:35.308Z,99746.28
2022-08-03T09:21:33.560Z,99746.13
2022-08-03T09:24:03.769Z,99741.34
2022-08-03T09:26:32.440Z,99747.34
2022-08-03T09:29:04.881Z,99747.06
2022-08-03T09:31:37.392Z,99729.66
2022-08-03T09:34:05.762Z,99742.19
2022-08-03T09:36:34.538Z,99743.88
2022-08-03T09:39:05.131Z,99741.59
2022-08-03T09:41:32.533Z,99733.88
2022-08-03T09:43:59.801Z,99743.72
2022-08-03T09:46:26.689Z,99741.94
2022-08-03T09:48:53.632Z,99729.97
2022-08-03T09:51:32.796Z,99730.47
2022-08-03T09:54:18.893Z,99725.84
2022-08-03T09:56:47.499Z,99720.38
2022-08-03T09:59:26.192Z,99722.69
2022-08-03T10:01:53.463Z,99728.53
2022-08-03T10:04:20.430Z,99726.00
2022-08-03T10:07:01.743Z,99724.53
2022-08-03T10:09:28.598Z,99712.81
2022-08-03T10:11:55.494Z,99722.88
2022-08-03T10:14:22.978Z,99722.88
2022-08-03T10:16:50.231Z,99715.38
2022-08-03T10:19:17.218Z,99719.72
2022-08-03T10:21:53.548Z,99718.22
2022-08-03T10:24:29.965Z,99714.22
2022-08-03T10:27:01.152Z,99711.69
2022-08-03T10:29:28.515Z,99708.16
2022-08-03T10:31:58.648Z,99703.75
2022-08-03T10:34:27.054Z,99702.38
2022-08-03T10:36:56.511Z,99709.00
2022-08-03T10:39:24.598Z,99696.09
2022-08-03T10:41:51.916Z,99688.63
2022-08-03T10:44:20.873Z,99687.81
2022-08-03T10:46:48.489Z,99688.47
2022-08-03T10:49:17.164Z,99680.66
2022-08-03T10:52:01.130Z,99685.44
2022-08-03T10:54:38.652Z,99686.59
2022-08-03T10:57:35.987Z,99682.38
2022-08-03T11:00:18.664Z,99680.09
2022-08-03T11:03:04.169Z,99675.63
2022-08-03T11:05:32.354Z,99668.50
2022-08-03T11:08:18.151Z,99666.16
2022-08-03T11:10:45.242Z,99662.84
2022-08-03T11:13:16.906Z,99668.00
2022-08-03T11:15:45.976Z,99660.50
2022-08-03T11:18:13.226Z,99663.44
2022-08-03T11:20:49.056Z,99662.06
2022-08-03T11:23:16.753Z,99661.22
2022-08-03T11:26:09.601Z,99659.09
2022-08-03T11:28:36.528Z,99658.69
2022-08-03T11:31:46.763Z,99660.50
2022-08-03T11:34:09.638Z,99658.53
2022-08-03T11:36:55.135Z,99662.09
2022-08-03T11:39:22.080Z,99656.34
2022-08-03T11:41:48.906Z,99653.22
2022-08-03T11:44:34.525Z,99652.72
2022-08-03T11:47:01.456Z,99645.00
2022-08-03T11:49:28.361Z,99643.59
2022-08-03T11:51:55.284Z,99644.78
2022-08-03T11:54:22.317Z,99648.06
2022-08-03T11:56:49.746Z,99643.13
2022-08-03T11:59:21.681Z,99636.06
2022-08-03T12:01:49.555Z,99639.44
2022-08-03T12:04:16.554Z,99630.72
2022-08-03T12:06:59.778Z,99633.69
2022-08-03T12:09:26.625Z,99632.91
2022-08-03T12:12:00.486Z,99629.88
2022-08-03T12:14:49.020Z,99623.47
2022-08-03T12:17:15.970Z,99628.59
2022-08-03T12:19:43.405Z,99625.81
2022-08-03T12:22:10.349Z,99618.78
2022-08-03T12:24:43.939Z,99617.81
2022-08-03T12:27:10.817Z,99621.44
2022-08-03T12:29:37.748Z,99610.69
2022-08-03T12:32:04.757Z,99600.78
2022-08-03T12:34:50.429Z,99603.16
2022-08-03T12:37:22.662Z,99601.78
2022-08-03T12:40:00.476Z,99605.34
2022-08-03T12:42:31.585Z,99599.97
2022-08-03T12:44:58.456Z,99599.41
2022-08-03T12:47:25.309Z,99593.84
2022-08-03T12:49:53.234Z,99599.38
2022-08-03T12:52:21.331Z,99596.69
2022-08-03T12:54:58.198Z,99603.31
2022-08-03T12:57:25.276Z,99601.38
2022-08-03T12:59:53.454Z,99593.06
2022-08-03T13:02:23.401Z,99604.91
2022-08-03T13:04:51.421Z,99594.88
2022-08-03T13:07:19.666Z,99594.53
2022-08-03T13:09:48.485Z,99600.72
2022-08-03T13:12:22.093Z,99590.28
2022-08-03T13:14:50.269Z,99603.84
2022-08-03T13:17:17.341Z,99598.00
2022-08-03T13:19:45.147Z,99593.78
2022-08-03T13:22:11.967Z,99592.38
2022-08-03T13:24:38.847Z,99588.59
2022-08-03T13:28:01.936Z,99583.13
2022-08-03T13:29:52.546Z,99584.50
2022-08-03T13:32:19.877Z,99582.44
2022-08-03T13:34:46.824Z,99580.19
2022-08-03T13:37:13.999Z,99577.91
2022-08-03T13:39:58.354Z,99574.13
2022-08-03T13:42:31.314Z,99572.97
2022-08-03T13:44:58.708Z,99575.78
2022-08-03T13:47:25.931Z,99572.50
2022-08-03T13:50:00.049Z,99573.66
2022-08-03T13:52:29.709Z,99563.25
2022-08-03T13:54:56.569Z,99562.81
2022-08-03T13:58:04.606Z,99555.81
2022-08-03T14:00:10.564Z,99556.28
2022-08-03T14:02:37.505Z,99554.75
2022-08-03T14:05:04.510Z,99557.94
2022-08-03T14:07:31.366Z,99540.91
2022-08-03T14:09:58.181Z,99546.25
2022-08-03T14:12:25.034Z,99548.47
2022-08-03T14:14:51.862Z,99546.38
2022-08-03T14:17:19.149Z,99548.38
2022-08-03T14:19:53.575Z,99542.22
2022-08-03T14:22:21.158Z,99537.09
2022-08-03T14:24:48.032Z,99540.34
2022-08-03T14:27:16.522Z,99531.06
2022-08-03T14:29:43.420Z,99538.72
2022-08-03T14:32:13.172Z,99540.06
2022-08-03T14:34:40.714Z,99523.84
2022-08-03T14:37:07.636Z,99524.47
2022-08-03T14:42:21.322Z,99523.66
2022-08-03T14:44:48.203Z,99516.00
2022-08-03T14:47:15.222Z,99520.03
2022-08-03T14:50:37.085Z,99515.41
2022-08-03T14:52:29.149Z,99518.03
2022-08-03T14:54:56.041Z,99514.81
2022-08-03T14:57:31.859Z,99508.63
2022-08-03T14:59:58.692Z,99510.00
2022-08-03T15:02:25.649Z,99507.06
2022-08-03T15:04:52.752Z,99514.84
2022-08-03T15:07:19.836Z,99505.66
2022-08-03T15:09:46.823Z,99500.25
2022-08-03T15:12:13.714Z,99499.72
2022-08-03T15:14:40.614Z,99499.75
2022-08-03T15:17:07.739Z,99495.00
2022-08-03T15:20:02.353Z,99496.19
2022-08-03T15:22:24.828Z,99497.97
2022-08-03T15:24:52.599Z,99495.03
2022-08-03T15:27:19.623Z,99500.03
2022-08-03T15:30:07.583Z,99500.66
2022-08-03T15:32:34.022Z,99494.09
2022-08-03T15:35:01.006Z,99496.44
2022-08-03T15:37:28.076Z,99485.50
2022-08-03T15:39:59.622Z,99492.72
2022-08-03T15:42:28.488Z,99484.47
2022-08-03T15:44:55.373Z,99476.06
2022-08-03T15:47:22.579Z,99487.16
2022-08-03T15:49:49.663Z,99483.63
2022-08-03T15:52:16.508Z,99484.03
2022-08-03T15:54:43.419Z,99484.97
2022-08-03T15:57:11.233Z,99477.09
2022-08-03T15:59:38.101Z,99474.59
2022-08-03T16:02:04.983Z,99468.56
2022-08-03T16:04:31.842Z,99466.94
2022-08-03T16:06:58.693Z,99471.09
2022-08-03T16:09:43.329Z,99466.53
2022-08-03T16:12:15.752Z,99458.31
2022-08-03T16:14:52.404Z,99447.97
2022-08-03T16:17:20.706Z,99453.97
2022-08-03T16:19:47.755Z,99444.00
2022-08-03T16:22:14.714Z,99434.84
2022-08-03T16:24:41.592Z,99438.75
2022-08-03T16:27:17.316Z,99434.88
2022-08-03T16:29:55.333Z,99434.78
2022-08-03T16:32:22.193Z,99428.13
2022-08-03T16:34:49.047Z,99431.72
2022-08-03T16:37:37.774Z,99427.50
2022-08-03T16:40:04.656Z,99419.91
2022-08-03T16:42:33.597Z,99413.63
2022-08-03T16:45:00.457Z,99417.78
2022-08-03T16:47:27.288Z,99413.91
2022-08-03T16:49:56.417Z,99419.91
2022-08-03T16:52:24.055Z,99420.69
2022-08-03T16:54:53.224Z,99419.66
2022-08-03T16:57:58.400Z,99418.59
2022-08-03T17:00:08.807Z,99415.88
2022-08-03T17:02:36.253Z,99417.59
2022-08-03T17:05:03.428Z,99425.59
2022-08-03T17:07:30.653Z,99422.50
2022-08-03T17:09:57.722Z,99416.66
2022-08-03T17:12:26.892Z,99414.63
2022-08-03T17:14:54.014Z,99415.22
2022-08-03T17:17:37.621Z,99414.56
2022-08-03T17:20:18.827Z,99409.22
2022-08-03T17:22:49.744Z,99406.09
2022-08-03T17:25:22.149Z,99408.63
2022-08-03T17:28:49.701Z,99408.34
2022-08-03T17:30:51.362Z,99417.28
2022-08-03T17:33:20.874Z,99410.50
2022-08-03T17:35:47.746Z,99418.69
2022-08-03T17:38:22.378Z,99419.19
2022-08-03T17:40:52.040Z,99415.31
2022-08-03T17:44:13.784Z,99408.97
2022-08-03T17:46:07.219Z,99400.13
2022-08-03T17:48:37.781Z,99398.00
2022-08-03T17:51:17.581Z,99408.75
2022-08-03T17:53:48.135Z,99406.31
2022-08-03T17:56:45.125Z,99408.16
2022-08-03T17:59:15.039Z,99407.41
2022-08-03T18:01:58.185Z,99408.75
2022-08-03T18:04:38.410Z,99403.75
2022-08-03T18:10:06.752Z,99411.94
2022-08-03T18:12:47.630Z,99416.38
2022-08-03T18:15:22.968Z,99416.75
2022-08-03T18:17:55.313Z,99414.59
2022-08-03T18:20:42.072Z,99415.56
2022-08-03T18:23:20.403Z,99422.31
2022-08-03T18:26:00.657Z,99418.31
2022-08-03T18:28:28.874Z,99419.53
2022-08-03T18:30:55.902Z,99417.84
2022-08-03T18:34:16.658Z,99417.31
2022-08-03T18:36:11.032Z,99413.84
2022-08-03T18:38:46.457Z,99414.19
2022-08-03T18:44:08.323Z,99416.00
2022-08-03T18:46:36.176Z,99417.41
2022-08-03T18:49:08.326Z,99423.63
2022-08-03T18:51:43.224Z,99428.72
2022-08-03T18:54:45.643Z,99422.88
2022-08-03T18:57:19.204Z,99438.88
2022-08-03T18:59:51.687Z,99436.53
2022-08-03T19:02:30.316Z,99438.81
2022-08-03T19:05:03.385Z,99438.00
2022-08-03T19:07:36.028Z,99440.31
2022-08-03T19:10:07.581Z,99439.28
2022-08-03T19:12:45.714Z,99447.97
2022-08-03T19:15:13.709Z,99449.44
2022-08-03T19:17:52.769Z,99453.91
2022-08-03T19:20:21.712Z,99449.50
2022-08-03T19:22:50.893Z,99458.75
2022-08-03T19:25:17.919Z,99452.34
2022-08-03T19:27:46.849Z,99456.22
2022-08-03T19:30:26.218Z,99454.03
2022-08-03T19:32:54.008Z,99460.50
2022-08-03T19:35:52.138Z,99469.44
2022-08-03T19:38:08.671Z,99464.44
2022-08-03T19:40:42.092Z,99463.63
2022-08-03T19:43:14.340Z,99466.69
2022-08-03T19:46:04.452Z,99462.81
2022-08-03T19:48:33.253Z,99466.44
2022-08-03T19:51:02.477Z,99461.94
2022-08-03T19:53:44.873Z,99461.66
2022-08-03T19:56:14.093Z,99456.38
2022-08-03T19:58:42.563Z,99459.44
2022-08-03T20:01:19.163Z,99466.97
2022-08-03T20:03:47.429Z,99471.16
2022-08-03T20:06:16.904Z,99470.03
2022-08-03T20:08:44.403Z,99466.13
2022-08-03T20:11:11.405Z,99461.66
2022-08-03T20:13:39.136Z,99471.69
2022-08-03T20:16:06.194Z,99473.59
2022-08-03T20:18:39.289Z,99472.22
2022-08-03T20:21:15.062Z,99469.66
2022-08-03T20:23:58.083Z,99462.38
2022-08-03T20:26:30.222Z,99462.38
2022-08-03T20:29:00.771Z,99457.63
2022-08-03T20:31:36.663Z,99462.63
2022-08-03T20:34:03.802Z,99462.28
2022-08-03T20:36:30.701Z,99464.25
2022-08-03T20:38:58.241Z,99462.28
2022-08-03T20:41:25.398Z,99462.00
2022-08-03T20:43:52.268Z,99462.81
2022-08-03T20:46:29.133Z,99460.81
2022-08-03T20:49:04.338Z,99455.47
2022-08-03T20:51:49.762Z,99458.19
2022-08-03T20:54:22.550Z,99463.16
2022-08-03T20:56:57.477Z,99454.19
2022-08-03T20:59:25.055Z,99457.47
2022-08-03T21:01:51.885Z,99462.19
2022-08-03T21:04:21.683Z,99460.22
2022-08-03T21:06:57.657Z,99464.09
2022-08-03T21:12:15.451Z,99466.53
2022-08-03T21:13:04.040Z,99413.59
2022-08-03T21:13:04.167Z,99415.63
2022-08-03T21:13:13.764Z,99461.25
2022-08-03T21:15:02.292Z,99458.41
2022-08-03T21:17:40.648Z,99460.06
2022-08-03T21:20:09.368Z,99460.88
2022-08-03T21:22:37.649Z,99459.13
2022-08-03T21:25:06.325Z,99460.22
2022-08-03T21:27:33.165Z,99452.91
2022-08-03T21:30:01.038Z,99451.44
2022-08-03T21:32:32.316Z,99453.31
2022-08-03T21:35:00.562Z,99441.31
2022-08-03T21:37:28.081Z,99446.31
2022-08-03T21:39:55.555Z,99446.53
2022-08-03T21:42:22.928Z,99453.72
2022-08-03T21:44:50.670Z,99456.69
2022-08-03T21:47:18.120Z,99454.97
2022-08-03T21:50:07.080Z,99456.00
2022-08-03T21:52:35.417Z,99468.41
2022-08-03T21:55:05.783Z,99459.50
2022-08-03T21:57:34.096Z,99464.16
2022-08-03T22:00:12.783Z,99462.75
2022-08-03T22:02:44.837Z,99455.44
2022-08-03T22:05:19.969Z,99456.50
2022-08-03T22:08:07.532Z,99452.03
2022-08-03T22:10:34.363Z,99461.97
2022-08-03T22:13:01.188Z,99452.00
2022-08-03T22:15:28.029Z,99457.66
2022-08-03T22:17:57.160Z,99459.31
2022-08-03T22:20:24.463Z,99457.31
2022-08-03T22:22:56.738Z,99462.78
2022-08-03T22:25:25.991Z,99464.13
2022-08-03T22:27:53.913Z,99464.31
2022-08-03T22:30:21.174Z,99459.03
2022-08-03T22:32:52.620Z,99451.47
2022-08-03T22:35:21.024Z,99465.53
2022-08-03T22:37:53.033Z,99464.03
2022-08-03T22:40:19.873Z,99457.81
2022-08-03T22:42:47.192Z,99461.09
2022-08-03T22:46:07.013Z,99457.75
2022-08-03T22:48:01.311Z,99454.63
2022-08-03T22:50:31.467Z,99456.22
2022-08-03T22:53:01.195Z,99460.34
2022-08-03T22:55:28.193Z,99460.88
2022-08-03T22:57:55.700Z,99462.22
2022-08-03T23:00:23.435Z,99461.56
2022-08-03T23:02:53.633Z,99459.16
2022-08-03T23:06:02.557Z,99464.38
2022-08-03T23:08:14.525Z,99461.50
2022-08-03T23:10:46.650Z,99463.69
2022-08-03T23:13:16.344Z,99462.78
2022-08-03T23:15:48.776Z,99463.19
2022-08-03T23:18:16.167Z,99465.88
2022-08-03T23:20:44.709Z,99463.59
2022-08-03T23:23:12.526Z,99464.34
2022-08-03T23:25:41.484Z,99464.84
2022-08-03T23:28:08.930Z,99471.13
2022-08-03T23:30:37.248Z,99476.56
2022-08-03T23:33:04.206Z,99477.91
2022-08-03T23:36:28.210Z,99474.09
2022-08-03T23:38:22.621Z,99475.78
2022-08-03T23:40:51.325Z,99468.56
2022-08-03T23:43:45.150Z,99461.34
2022-08-03T23:46:06.645Z,99470.38
2022-08-03T23:48:33.974Z,99465.09
2022-08-03T23:51:03.103Z,99470.78
2022-08-03T23:53:40.643Z,99472.03
2022-08-03T23:56:07.510Z,99459.50
2022-08-03T23:58:43.330Z,99467.81
